Time;durP1;ratioP1;P1;durP2;ratioP2;P2;SDS_P1;SDS_P2;PMS_P1;PMS_P2;Temp;Humidity;BMP_temperature;BMP_pressure;BME280_temperature;BME280_humidity;BME280_pressure;Samples;Min_cycle;Max_cycle;Signal;HPM_P1;HPM_P2
2021/12/27 00:01:04;;;;;;;80.82;22.75;;;;;;;-7.04;49.39;100556.94;5013707;28;20133;-76
2021/12/27 00:03:31;;;;;;;66.82;22.17;;;;;;;-6.72;48.97;100553.19;5012811;28;20050;-76
2021/12/27 00:05:57;;;;;;;71.47;23.17;;;;;;;-6.97;49.19;100558.41;5012779;28;20070;-76
2021/12/27 00:08:24;;;;;;;74.55;24.40;;;;;;;-6.84;49.09;100557.97;5012700;28;20046;-76
2021/12/27 00:10:51;;;;;;;71.15;23.08;;;;;;;-6.85;49.32;100554.53;5011770;28;20573;-76
2021/12/27 00:13:17;;;;;;;72.15;24.13;;;;;;;-7.27;50.07;100554.22;5012377;28;20459;-75
2021/12/27 00:15:44;;;;;;;73.53;23.20;;;;;;;-6.88;49.49;100547.66;5010783;28;20125;-75
2021/12/27 00:18:12;;;;;;;76.32;25.08;;;;;;;-7.04;50.07;100541.28;5011914;28;20069;-75
2021/12/27 00:20:38;;;;;;;64.65;23.45;;;;;;;-7.05;50.14;100539.56;5010780;28;20450;-75
2021/12/27 00:23:05;;;;;;;77.35;24.10;;;;;;;-7.12;50.14;100546.75;5011757;28;20080;-75
2021/12/27 00:25:31;;;;;;;67.63;23.83;;;;;;;-6.94;49.56;100549.66;5013263;28;20133;-76
2021/12/27 00:27:58;;;;;;;68.63;24.67;;;;;;;-6.71;49.04;100551.44;5013057;28;20100;-76
2021/12/27 00:30:24;;;;;;;77.20;25.17;;;;;;;-6.97;49.09;100544.53;5011925;28;20461;-76
2021/12/27 00:32:51;;;;;;;76.82;25.95;;;;;;;-6.68;49.45;100546.09;5011645;28;20112;-76
2021/12/27 00:35:19;;;;;;;72.60;24.55;;;;;;;-6.61;48.39;100533.69;5013814;28;20097;-76
2021/12/27 00:37:46;;;;;;;79.50;25.60;;;;;;;-6.53;48.70;100531.66;5012230;28;20103;-76
2021/12/27 00:40:13;;;;;;;70.65;25.15;;;;;;;-6.44;48.15;100520.88;5013088;28;20068;-76
2021/12/27 00:42:40;;;;;;;71.88;25.85;;;;;;;-6.50;48.06;100515.88;5012861;28;20080;-75
2021/12/27 00:45:07;;;;;;;67.22;23.67;;;;;;;-6.49;48.10;100517.59;5013067;28;20052;-75
2021/12/27 00:47:34;;;;;;;82.32;25.58;;;;;;;-6.73;48.78;100514.97;5012397;28;20052;-76
2021/12/27 00:50:01;;;;;;;78.90;26.00;;;;;;;-6.85;49.06;100512.78;5013615;28;20443;-76
2021/12/27 00:52:28;;;;;;;79.85;25.95;;;;;;;-6.40;48.03;100517.25;5013224;28;20048;-76
2021/12/27 00:54:54;;;;;;;77.07;25.45;;;;;;;-6.50;48.21;100505.44;5013176;28;20069;-76
2021/12/27 00:57:21;;;;;;;73.55;24.95;;;;;;;-7.04;49.45;100514.38;5012477;28;20124;-76
2021/12/27 00:59:47;;;;;;;76.25;26.17;;;;;;;-7.06;49.14;100511.78;5012215;28;20052;-76
2021/12/27 01:02:13;;;;;;;79.75;25.33;;;;;;;-7.20;49.77;100509.66;5012820;28;20409;-76
2021/12/27 01:04:40;;;;;;;68.72;25.60;;;;;;;-7.27;49.89;100508.16;5010800;28;20557;-75
2021/12/27 01:07:07;;;;;;;79.13;26.55;;;;;;;-6.94;49.00;100507.91;5011191;28;20049;-76
2021/12/27 01:09:55;;;;;;;77.97;26.90;;;;;;;-6.77;49.29;100502.94;5011903;28;20050;-76
2021/12/27 01:17:39;;;;;;;80.68;25.88;;;;;;;-6.49;47.92;100497.56;5011990;28;20096;-76
2021/12/27 01:20:09;;;;;;;88.68;27.20;;;;;;;-6.83;49.16;100494.50;5012560;28;20080;-76
2021/12/27 01:22:35;;;;;;;86.15;28.35;;;;;;;-7.08;49.27;100491.88;5013962;28;20081;-76
2021/12/27 01:25:05;;;;;;;91.00;29.17;;;;;;;-7.29;50.07;100485.66;5015645;28;20414;-76
2021/12/27 01:27:33;;;;;;;86.38;27.38;;;;;;;-7.12;49.77;100475.50;5016870;28;20168;-76
2021/12/27 01:29:59;;;;;;;88.93;27.55;;;;;;;-7.07;49.48;100471.00;5016361;28;20129;-76
2021/12/27 01:32:35;;;;;;;92.18;28.65;;;;;;;-7.04;49.66;100468.28;5016642;28;20465;-76
2021/12/27 01:35:01;;;;;;;80.85;26.75;;;;;;;-7.37;50.37;100457.25;5014907;28;20068;-76
2021/12/27 01:37:28;;;;;;;87.70;27.13;;;;;;;-6.99;49.61;100470.72;5017371;28;20074;-76
2021/12/27 01:39:54;;;;;;;91.88;28.13;;;;;;;-7.50;50.69;100466.38;5017500;28;20121;-76
2021/12/27 01:42:21;;;;;;;85.15;27.67;;;;;;;-7.28;50.42;100459.56;5015721;28;20084;-76
2021/12/27 01:44:47;;;;;;;91.35;29.13;;;;;;;-7.00;49.50;100464.66;5017307;28;20493;-76
2021/12/27 01:47:14;;;;;;;75.30;28.45;;;;;;;-6.42;48.48;100467.72;5015783;28;20048;-76
2021/12/27 01:49:40;;;;;;;100.20;30.65;;;;;;;-6.39;47.64;100471.94;5015460;28;20478;-75
2021/12/27 01:52:07;;;;;;;84.63;28.95;;;;;;;-6.81;49.10;100475.25;5015939;28;20057;-75
2021/12/27 01:54:33;;;;;;;91.25;29.80;;;;;;;-6.78;48.68;100477.75;5016600;28;20073;-75
2021/12/27 01:57:00;;;;;;;85.75;29.05;;;;;;;-7.08;49.34;100471.03;4997411;28;20141;-75
2021/12/27 01:59:27;;;;;;;93.50;29.83;;;;;;;-6.12;47.93;100474.41;4977022;28;20150;-76
2021/12/27 02:01:54;;;;;;;89.38;29.33;;;;;;;-6.22;47.29;100477.41;4977128;28;20042;-75
2021/12/27 02:04:20;;;;;;;89.97;30.73;;;;;;;-6.65;48.06;100476.41;5005538;28;20058;-75
2021/12/27 02:07:31;;;;;;;99.28;31.10;;;;;;;-6.29;47.64;100468.09;5016248;28;20124;-75
2021/12/27 02:10:02;;;;;;;91.30;30.88;;;;;;;-7.02;49.29;100460.38;5014880;28;20125;-75
2021/12/27 02:12:46;;;;;;;99.60;31.55;;;;;;;-6.90;49.22;100439.09;5015198;28;20050;-75
2021/12/27 02:15:12;;;;;;;98.95;32.25;;;;;;;-6.85;49.20;100447.59;5015134;28;20066;-75
2021/12/27 02:17:41;;;;;;;99.63;31.40;;;;;;;-6.82;48.86;100442.25;5015698;28;20137;-74
2021/12/27 02:20:23;;;;;;;104.35;30.52;;;;;;;-7.28;49.52;100430.88;5015759;28;20523;-75
2021/12/27 02:22:54;;;;;;;89.70;30.15;;;;;;;-7.43;50.25;100429.69;5014998;28;20187;-76
2021/12/27 02:25:21;;;;;;;99.22;31.13;;;;;;;-6.75;49.72;100432.47;5015782;28;20086;-75
2021/12/27 02:27:50;;;;;;;92.78;30.45;;;;;;;-6.21;48.02;100434.72;5014710;28;20080;-75
2021/12/27 02:30:18;;;;;;;104.43;33.72;;;;;;;-6.21;47.56;100436.47;5014486;28;20044;-75
2021/12/27 02:32:51;;;;;;;90.57;30.65;;;;;;;-6.88;49.24;100437.25;5014859;28;20125;-76
2021/12/27 02:35:22;;;;;;;105.13;31.40;;;;;;;-7.13;49.43;100430.34;5014947;28;20121;-75
2021/12/27 02:37:49;;;;;;;103.23;32.97;;;;;;;-6.74;49.09;100441.97;5015576;28;20092;-75
2021/12/27 02:40:16;;;;;;;105.47;32.63;;;;;;;-6.37;48.05;100436.22;5014998;28;20129;-75
2021/12/27 02:43:00;;;;;;;100.47;31.17;;;;;;;-6.35;47.79;100439.63;5015393;28;20054;-75
2021/12/27 02:45:28;;;;;;;105.10;33.25;;;;;;;-6.22;47.79;100437.38;5015992;28;20129;-75
2021/12/27 02:47:55;;;;;;;91.35;31.85;;;;;;;-6.58;48.56;100429.22;5014866;28;20053;-76
2021/12/27 02:50:24;;;;;;;93.45;31.60;;;;;;;-6.81;48.74;100423.09;5013410;28;20077;-76
2021/12/27 02:52:51;;;;;;;96.82;30.15;;;;;;;-7.11;49.44;100409.44;5014710;28;20405;-76
2021/12/27 02:55:18;;;;;;;101.88;32.55;;;;;;;-7.23;49.86;100405.50;5015256;28;20044;-76
2021/12/27 02:57:47;;;;;;;101.45;32.28;;;;;;;-7.27;50.30;100403.06;5015679;28;20069;-76
2021/12/27 03:00:40;;;;;;;84.88;30.52;;;;;;;-6.10;47.97;100399.50;5014657;28;20106;-76
2021/12/27 03:03:07;;;;;;;114.40;31.80;;;;;;;-6.90;49.17;100405.19;5014972;28;20121;-76
2021/12/27 03:05:34;;;;;;;105.65;34.13;;;;;;;-6.71;48.99;100400.97;5015981;28;20501;-76
2021/12/27 03:08:00;;;;;;;103.60;32.50;;;;;;;-6.44;48.44;100388.63;5013793;28;20072;-76
2021/12/27 03:10:31;;;;;;;89.80;31.48;;;;;;;-6.44;48.07;100388.63;5014146;28;20053;-75
2021/12/27 03:12:59;;;;;;;69.73;26.00;;;;;;;-6.03;47.26;100395.72;5010184;28;20070;-75
2021/12/27 03:15:26;;;;;;;99.15;33.15;;;;;;;-6.02;47.34;100400.03;5015696;28;20066;-75
2021/12/27 03:17:54;;;;;;;98.75;33.00;;;;;;;-6.01;46.98;100399.09;5013986;28;20391;-75
2021/12/27 03:20:24;;;;;;;93.63;32.88;;;;;;;-6.13;47.61;100394.38;5013279;28;20054;-75
2021/12/27 03:22:51;;;;;;;94.67;32.30;;;;;;;-5.84;47.03;100396.66;5014881;28;20129;-75
2021/12/27 03:25:23;;;;;;;96.05;32.03;;;;;;;-5.92;47.24;100399.56;5014670;28;20348;-76
2021/12/27 03:27:50;;;;;;;109.68;34.58;;;;;;;-6.60;48.54;100390.13;5014668;28;20467;-76
2021/12/27 03:30:21;;;;;;;97.35;32.17;;;;;;;-6.55;48.38;100382.97;5014350;28;20401;-76
2021/12/27 03:32:48;;;;;;;95.70;32.42;;;;;;;-6.12;47.89;100380.41;5013614;28;20502;-75
2021/12/27 03:35:24;;;;;;;99.95;32.67;;;;;;;-6.81;49.34;100381.34;5013607;28;20129;-76
2021/12/27 03:37:54;;;;;;;98.15;32.40;;;;;;;-6.53;48.44;100378.56;4995387;28;20070;-76
2021/12/27 03:40:22;;;;;;;93.65;32.40;;;;;;;-6.53;48.77;100370.72;4995063;28;20089;-76
2021/12/27 03:42:52;;;;;;;110.38;34.88;;;;;;;-6.99;49.15;100369.00;4995211;28;20046;-76
2021/12/27 03:45:26;;;;;;;110.60;34.55;;;;;;;-6.53;49.14;100369.84;4992595;28;20043;-76
2021/12/27 03:47:53;;;;;;;97.18;31.08;;;;;;;-6.94;49.96;100357.50;4993511;28;20050;-76
2021/12/27 03:50:20;;;;;;;100.03;33.15;;;;;;;-6.94;49.91;100365.34;5012146;28;20124;-76
2021/12/27 03:52:46;;;;;;;99.65;31.08;;;;;;;-6.81;49.58;100355.28;5014102;28;20494;-76
2021/12/27 03:55:13;;;;;;;107.20;33.85;;;;;;;-6.55;48.97;100359.50;5012766;28;20156;-76
2021/12/27 03:57:42;;;;;;;103.70;34.53;;;;;;;-6.67;49.07;100355.63;5009693;28;20492;-76
2021/12/27 04:00:27;;;;;;;99.53;32.05;;;;;;;-6.06;48.26;100356.66;5014464;28;20129;-76
2021/12/27 04:02:56;;;;;;;99.70;34.58;;;;;;;-6.78;49.21;100339.50;5013556;28;20057;-76
2021/12/27 04:05:24;;;;;;;102.38;32.63;;;;;;;-6.43;49.01;100334.66;5013366;28;20550;-76
2021/12/27 04:08:00;;;;;;;104.60;33.03;;;;;;;-5.78;46.96;100345.91;5014253;28;20069;-76
2021/12/27 04:10:28;;;;;;;105.00;32.42;;;;;;;-6.15;48.15;100347.44;5014513;28;20137;-76
2021/12/27 04:12:55;;;;;;;97.22;33.00;;;;;;;-6.49;48.37;100345.38;5013019;28;20545;-76
2021/12/27 04:15:25;;;;;;;95.50;31.33;;;;;;;-5.63;46.78;100347.84;5013244;28;20546;-76
2021/12/27 04:17:52;;;;;;;109.53;33.05;;;;;;;-5.87;47.51;100344.56;5013415;28;20046;-76
2021/12/27 04:20:20;;;;;;;106.70;34.33;;;;;;;-6.50;48.44;100341.88;5013420;28;20129;-76
2021/12/27 04:22:47;;;;;;;88.88;31.30;;;;;;;-5.80;47.62;100346.00;5012409;28;20050;-76
2021/12/27 04:25:15;;;;;;;106.07;34.42;;;;;;;-5.42;46.63;100346.09;5013045;28;20129;-76
2021/12/27 04:27:42;;;;;;;94.25;32.10;;;;;;;-6.13;47.81;100348.25;5013931;28;20129;-76
2021/12/27 04:30:09;;;;;;;103.25;33.80;;;;;;;-5.75;47.07;100344.00;5011294;28;20109;-76
2021/12/27 04:32:36;;;;;;;104.38;33.55;;;;;;;-5.77;47.24;100340.59;5014140;28;20113;-77
2021/12/27 04:35:03;;;;;;;103.60;36.05;;;;;;;-5.87;47.39;100328.88;5013810;28;20045;-76
2021/12/27 04:37:30;;;;;;;100.47;33.60;;;;;;;-5.68;47.64;100329.78;5013051;28;20050;-76
2021/12/27 04:39:58;;;;;;;102.07;34.30;;;;;;;-5.70;47.05;100338.59;5011938;28;20129;-76
2021/12/27 04:42:25;;;;;;;100.70;33.72;;;;;;;-5.77;47.35;100337.16;5012974;28;20072;-76
2021/12/27 04:44:52;;;;;;;103.93;34.67;;;;;;;-5.62;46.99;100338.28;5013702;28;20514;-76
2021/12/27 04:47:22;;;;;;;85.35;24.67;;;;;;;-5.36;46.42;100337.13;5013557;28;20052;-76
2021/12/27 04:49:49;;;;;;;102.10;32.80;;;;;;;-5.23;46.17;100340.88;5012673;28;20120;-76
2021/12/27 04:52:16;;;;;;;92.38;33.35;;;;;;;-5.34;46.94;100325.69;5008420;28;20468;-76
2021/12/27 04:54:42;;;;;;;107.07;34.47;;;;;;;-5.58;46.25;100316.31;5012789;28;20065;-76
2021/12/27 04:57:09;;;;;;;94.55;31.58;;;;;;;-5.87;47.67;100321.03;5013868;28;20069;-76
2021/12/27 04:59:35;;;;;;;108.40;32.78;;;;;;;-5.45;46.60;100318.31;5017659;28;20427;-76
2021/12/27 05:02:03;;;;;;;100.18;34.30;;;;;;;-5.74;47.01;100316.97;5017760;28;20449;-76
2021/12/27 05:04:30;;;;;;;106.50;32.75;;;;;;;-5.85;47.36;100315.75;5017114;28;20052;-76
2021/12/27 05:06:57;;;;;;;103.60;33.92;;;;;;;-5.60;47.54;100324.19;5018355;28;20102;-76
2021/12/27 05:09:23;;;;;;;100.93;33.03;;;;;;;-5.95;47.66;100310.06;5015615;28;20487;-76
2021/12/27 05:11:50;;;;;;;99.50;31.70;;;;;;;-6.16;48.50;100312.66;5018698;28;20109;-76
2021/12/27 05:14:16;;;;;;;97.53;31.40;;;;;;;-6.00;48.46;100301.56;5018752;28;20073;-76
2021/12/27 05:16:44;;;;;;;101.32;32.55;;;;;;;-5.45;47.55;100305.25;5009592;28;20042;-76
2021/12/27 05:19:10;;;;;;;95.50;33.25;;;;;;;-5.61;47.67;100300.75;5017913;28;20049;-77
2021/12/27 05:21:38;;;;;;;106.03;33.90;;;;;;;-5.43;47.36;100295.56;5018425;28;20129;-76
2021/12/27 05:24:05;;;;;;;105.68;34.60;;;;;;;-5.50;47.54;100294.13;5017471;28;20132;-76
2021/12/27 05:26:31;;;;;;;105.82;34.72;;;;;;;-5.41;47.33;100292.88;5018558;28;20124;-76
2021/12/27 05:28:57;;;;;;;102.35;32.80;;;;;;;-5.45;47.19;100284.34;5016839;28;20069;-76
2021/12/27 05:31:29;;;;;;;103.03;35.47;;;;;;;-5.17;47.03;100290.94;5017894;28;20128;-76
2021/12/27 05:33:55;;;;;;;101.35;34.50;;;;;;;-5.58;47.39;100291.03;5017261;28;20061;-77
2021/12/27 05:36:22;;;;;;;103.78;33.80;;;;;;;-6.09;48.75;100292.34;5017271;28;20144;-77
2021/12/27 05:38:49;;;;;;;101.15;34.28;;;;;;;-5.76;48.47;100279.63;5017293;28;20065;-76
2021/12/27 05:41:15;;;;;;;106.28;33.42;;;;;;;-5.71;48.12;100279.41;5016022;28;20077;-76
2021/12/27 05:43:42;;;;;;;97.18;34.05;;;;;;;-5.46;47.50;100284.38;5017418;28;20402;-76
2021/12/27 05:46:08;;;;;;;96.35;33.78;;;;;;;-5.08;47.00;100272.16;5018375;28;20057;-76
2021/12/27 05:48:35;;;;;;;103.45;32.90;;;;;;;-5.17;47.23;100280.47;5016871;28;20053;-76
2021/12/27 05:51:01;;;;;;;106.63;33.88;;;;;;;-5.37;47.45;100276.13;5016052;28;20071;-77
2021/12/27 05:53:28;;;;;;;109.47;33.85;;;;;;;-5.10;47.27;100279.25;5015830;28;20057;-76
2021/12/27 05:55:54;;;;;;;98.55;33.38;;;;;;;-5.15;47.66;100275.16;5017178;28;20125;-77
2021/12/27 05:58:21;;;;;;;96.72;34.63;;;;;;;-5.40;48.06;100278.03;5007659;28;20071;-77
2021/12/27 06:00:48;;;;;;;103.03;34.80;;;;;;;-5.13;47.41;100275.94;5015429;28;20048;-77
2021/12/27 06:03:15;;;;;;;103.50;34.30;;;;;;;-5.36;47.81;100280.44;5017031;28;20042;-77
2021/12/27 06:05:41;;;;;;;116.43;34.22;;;;;;;-4.94;47.24;100283.75;5017889;28;20076;-77
2021/12/27 06:08:08;;;;;;;96.53;31.98;;;;;;;-5.37;48.22;100275.28;5017264;28;20061;-76
2021/12/27 06:10:35;;;;;;;97.25;33.47;;;;;;;-5.18;47.86;100280.53;5014367;28;20045;-76
2021/12/27 06:13:01;;;;;;;108.07;35.53;;;;;;;-4.95;47.36;100277.69;5011523;28;20049;-76
2021/12/27 06:15:28;;;;;;;99.82;35.08;;;;;;;-5.05;47.76;100271.19;5015482;28;20073;-76
2021/12/27 06:17:54;;;;;;;105.28;35.95;;;;;;;-5.22;48.21;100262.34;5015806;28;20046;-76
2021/12/27 06:20:21;;;;;;;90.28;32.40;;;;;;;-5.65;49.19;100270.47;5030538;28;20140;-76
2021/12/27 06:22:56;;;;;;;104.85;34.13;;;;;;;-5.63;48.88;100253.78;5016408;28;20132;-76
2021/12/27 06:25:23;;;;;;;97.75;33.50;;;;;;;-5.22;48.94;100258.91;5016649;28;20129;-76
2021/12/27 06:27:50;;;;;;;101.80;35.22;;;;;;;-5.09;47.94;100259.19;5015305;28;20042;-76
2021/12/27 06:30:17;;;;;;;101.10;34.40;;;;;;;-5.20;48.34;100257.06;5015312;28;20125;-76
2021/12/27 06:32:44;;;;;;;100.53;33.60;;;;;;;-5.16;48.04;100258.63;5009311;28;20050;-76
2021/12/27 06:35:13;;;;;;;99.53;34.97;;;;;;;-5.09;48.34;100259.19;5016597;28;20116;-76
2021/12/27 06:37:41;;;;;;;108.45;34.95;;;;;;;-4.75;47.58;100255.81;5014957;28;20125;-77
2021/12/27 06:40:10;;;;;;;109.88;35.72;;;;;;;-4.46;46.69;100245.69;5015759;28;20046;-76
2021/12/27 06:42:37;;;;;;;106.38;34.70;;;;;;;-4.59;46.94;100248.03;5015644;28;20513;-76
2021/12/27 06:45:04;;;;;;;98.15;33.67;;;;;;;-4.66;47.13;100247.50;5014971;28;20073;-76
2021/12/27 06:47:31;;;;;;;103.30;33.90;;;;;;;-4.27;46.30;100255.16;5014488;28;20049;-76
2021/12/27 06:49:57;;;;;;;100.40;34.58;;;;;;;-4.39;46.31;100261.00;5011476;28;20143;-76
2021/12/27 06:52:24;;;;;;;97.28;34.15;;;;;;;-4.53;46.61;100256.44;5025612;28;20085;-76
2021/12/27 06:54:51;;;;;;;96.07;34.85;;;;;;;-4.50;46.75;100255.47;5016024;28;20050;-76
2021/12/27 06:57:27;;;;;;;108.03;35.42;;;;;;;-4.83;47.96;100260.56;5015476;28;20480;-76
2021/12/27 06:59:54;;;;;;;98.45;34.88;;;;;;;-4.64;47.81;100255.28;5015493;28;20073;-76
2021/12/27 07:02:20;;;;;;;102.63;34.67;;;;;;;-4.45;47.29;100263.94;5014271;28;20136;-76
2021/12/27 07:04:47;;;;;;;95.90;33.28;;;;;;;-4.37;47.36;100258.31;5015567;28;20133;-76
2021/12/27 07:07:14;;;;;;;97.82;33.65;;;;;;;-4.66;47.72;100249.28;5016246;28;20046;-76
2021/12/27 07:09:40;;;;;;;92.32;34.08;;;;;;;-4.72;48.14;100251.28;5016209;28;20076;-76
2021/12/27 07:12:07;;;;;;;98.47;32.25;;;;;;;-4.30;47.80;100254.47;5014331;28;20133;-76
2021/12/27 07:14:33;;;;;;;104.18;36.28;;;;;;;-4.45;47.84;100247.38;5012934;28;20538;-76
2021/12/27 07:17:00;;;;;;;105.28;33.55;;;;;;;-4.40;47.73;100253.25;5015188;28;20498;-76
2021/12/27 07:19:27;;;;;;;101.78;34.13;;;;;;;-4.60;48.80;100264.69;5015124;28;20053;-76
2021/12/27 07:21:54;;;;;;;90.97;33.13;;;;;;;-3.98;47.76;100252.00;5013149;28;20474;-76
2021/12/27 07:24:20;;;;;;;104.35;34.50;;;;;;;-4.29;48.66;100257.00;5013672;28;20058;-76
2021/12/27 07:26:47;;;;;;;92.40;33.50;;;;;;;-4.13;48.25;100254.47;5014172;28;20105;-76
2021/12/27 07:29:14;;;;;;;102.50;33.72;;;;;;;-4.06;48.79;100252.41;5014624;28;20049;-76
2021/12/27 07:31:41;;;;;;;100.88;34.15;;;;;;;-4.27;48.95;100249.94;5013625;28;20104;-76
2021/12/27 07:34:07;;;;;;;119.43;37.00;;;;;;;-4.27;49.38;100244.69;5013144;28;20096;-76
2021/12/27 07:36:34;;;;;;;104.57;34.42;;;;;;;-4.70;50.45;100239.88;5014374;28;20073;-77
2021/12/27 07:39:05;;;;;;;104.82;34.78;;;;;;;-4.29;49.80;100241.28;5013310;28;20069;-77
2021/12/27 07:41:31;;;;;;;97.90;33.70;;;;;;;-4.50;50.21;100237.13;5014436;28;20130;-77
2021/12/27 07:43:58;;;;;;;102.18;34.58;;;;;;;-4.44;50.25;100234.22;5012932;28;20050;-77
2021/12/27 07:46:24;;;;;;;109.75;35.38;;;;;;;-4.42;50.15;100232.34;5005848;28;20149;-77
2021/12/27 07:48:51;;;;;;;100.80;34.58;;;;;;;-4.03;49.58;100231.28;5025305;28;20057;-77
2021/12/27 07:51:18;;;;;;;102.82;34.88;;;;;;;-4.05;49.20;100240.97;5017219;28;20073;-77
2021/12/27 07:53:45;;;;;;;105.25;35.78;;;;;;;-4.44;50.40;100230.75;5017536;28;20394;-77
2021/12/27 07:56:12;;;;;;;97.15;35.75;;;;;;;-4.07;50.06;100238.44;5018959;28;20113;-77
2021/12/27 07:58:38;;;;;;;105.45;35.53;;;;;;;-3.63;49.06;100239.66;5016587;28;20046;-77
2021/12/27 08:01:05;;;;;;;97.78;34.47;;;;;;;-3.60;49.26;100240.34;5017537;28;20110;-77
2021/12/27 08:03:31;;;;;;;103.80;35.40;;;;;;;-3.57;48.73;100245.44;5018633;28;20046;-77
2021/12/27 08:05:58;;;;;;;101.20;35.50;;;;;;;-3.95;49.79;100244.81;5014855;28;20517;-77
2021/12/27 08:08:25;;;;;;;112.03;36.67;;;;;;;-3.71;49.84;100237.47;5012950;28;20513;-77
2021/12/27 08:10:51;;;;;;;122.70;36.40;;;;;;;-3.80;50.46;100241.38;5013177;28;20072;-77
2021/12/27 08:13:18;;;;;;;101.53;35.63;;;;;;;-3.88;51.17;100234.88;5014486;28;20045;-77
2021/12/27 08:15:44;;;;;;;103.05;35.67;;;;;;;-4.25;52.69;100227.13;5013851;28;20132;-77
2021/12/27 08:18:11;;;;;;;105.13;34.50;;;;;;;-4.49;53.72;100234.44;5011677;28;20049;-77
2021/12/27 08:20:38;;;;;;;103.95;36.33;;;;;;;-4.39;53.74;100220.88;5013042;28;20120;-77
2021/12/27 08:23:04;;;;;;;90.00;33.38;;;;;;;-4.78;54.33;100220.16;5012270;28;20049;-77
2021/12/27 08:25:31;;;;;;;100.70;35.08;;;;;;;-4.05;53.38;100231.34;5012776;28;20502;-76
2021/12/27 08:27:57;;;;;;;101.32;35.80;;;;;;;-3.72;52.51;100232.28;5013449;28;20045;-77
2021/12/27 08:30:24;;;;;;;102.22;36.03;;;;;;;-4.20;53.51;100226.06;5011755;28;20084;-77
2021/12/27 08:32:52;;;;;;;105.63;36.10;;;;;;;-3.89;52.87;100228.78;5013303;28;20133;-77
2021/12/27 08:35:20;;;;;;;99.30;35.35;;;;;;;-3.78;52.34;100225.59;5013821;28;20050;-77
2021/12/27 08:37:46;;;;;;;91.53;35.92;;;;;;;-3.14;51.60;100229.13;5013992;28;20124;-77
2021/12/27 08:40:14;;;;;;;95.45;35.80;;;;;;;-3.50;51.52;100224.13;5013270;28;20101;-77
2021/12/27 08:42:40;;;;;;;96.57;35.13;;;;;;;-3.41;51.39;100219.25;5012600;28;20120;-77
2021/12/27 08:45:08;;;;;;;102.90;35.20;;;;;;;-3.65;52.28;100221.41;5007553;28;20140;-77
2021/12/27 08:47:34;;;;;;;99.90;36.40;;;;;;;-3.74;52.13;100221.88;5014358;28;20049;-77
2021/12/27 08:50:03;;;;;;;100.60;37.90;;;;;;;-3.50;51.67;100224.13;5014089;28;20042;-77
2021/12/27 08:52:32;;;;;;;99.85;35.78;;;;;;;-3.24;51.71;100215.69;5013876;28;20077;-77
2021/12/27 08:55:03;;;;;;;92.32;34.67;;;;;;;-3.45;51.49;100214.22;5013530;28;20077;-77
2021/12/27 08:57:33;;;;;;;97.15;35.53;;;;;;;-3.37;51.22;100215.53;5012385;28;20070;-77
2021/12/27 09:00:01;;;;;;;95.03;35.63;;;;;;;-3.27;51.26;100231.63;5013504;28;20137;-77
2021/12/27 09:02:28;;;;;;;105.88;36.42;;;;;;;-3.07;50.89;100227.88;5014294;28;20145;-77
2021/12/27 09:04:54;;;;;;;100.38;35.60;;;;;;;-2.94;50.77;100228.88;5014657;28;20053;-77
2021/12/27 09:07:21;;;;;;;101.47;34.40;;;;;;;-2.94;50.50;100223.63;5016099;28;20046;-77
2021/12/27 09:09:47;;;;;;;100.55;36.10;;;;;;;-2.74;50.31;100219.03;5014941;28;20534;-77
2021/12/27 09:12:14;;;;;;;106.60;37.72;;;;;;;-2.74;50.29;100225.13;5014197;28;20450;-77
2021/12/27 09:14:41;;;;;;;91.65;36.38;;;;;;;-3.09;50.42;100217.47;5012742;28;20076;-77
2021/12/27 09:17:07;;;;;;;98.85;35.17;;;;;;;-2.72;50.01;100222.41;5012566;28;20132;-77
2021/12/27 09:19:33;;;;;;;93.68;34.88;;;;;;;-2.63;49.67;100217.47;5010179;28;20063;-77
2021/12/27 09:22:00;;;;;;;99.50;37.70;;;;;;;-3.03;51.22;100215.41;5013189;28;20129;-79
2021/12/27 09:24:28;;;;;;;98.22;36.47;;;;;;;-2.64;50.22;100214.97;5013275;28;20056;-78
2021/12/27 09:26:55;;;;;;;111.07;38.60;;;;;;;-2.50;49.48;100209.75;5012021;28;20096;-77
2021/12/27 09:29:21;;;;;;;104.50;36.67;;;;;;;-2.43;49.04;100216.34;5013114;28;20078;-77
2021/12/27 09:31:50;;;;;;;92.47;35.28;;;;;;;-2.40;49.22;100210.06;5013940;28;20439;-78
2021/12/27 09:34:17;;;;;;;96.72;36.15;;;;;;;-2.36;49.66;100220.31;5012841;28;20092;-77
2021/12/27 09:36:45;;;;;;;93.60;36.05;;;;;;;-2.51;49.92;100213.31;5013203;28;20104;-79
2021/12/27 09:39:12;;;;;;;94.65;35.28;;;;;;;-2.40;49.49;100210.91;5013859;28;20061;-77
2021/12/27 09:41:38;;;;;;;99.20;35.97;;;;;;;-2.45;49.81;100199.81;5012762;28;20050;-77
2021/12/27 09:44:05;;;;;;;98.70;35.92;;;;;;;-2.35;49.33;100194.88;5012552;28;20132;-77
2021/12/27 09:46:32;;;;;;;91.97;34.20;;;;;;;-2.57;49.98;100192.66;5016562;28;20080;-77
2021/12/27 09:49:02;;;;;;;96.65;34.38;;;;;;;-2.88;51.05;100191.78;5017902;28;20506;-77
2021/12/27 09:51:30;;;;;;;85.20;33.92;;;;;;;-2.69;50.10;100186.31;5016668;28;20046;-76
2021/12/27 09:53:56;;;;;;;95.28;33.80;;;;;;;-2.18;49.64;100186.00;5011779;28;20092;-76
2021/12/27 09:56:23;;;;;;;92.97;33.95;;;;;;;-2.19;49.61;100182.53;5027062;28;20052;-76
2021/12/27 09:58:49;;;;;;;99.57;34.63;;;;;;;-2.08;49.42;100184.50;5016596;28;20072;-76
2021/12/27 10:01:16;;;;;;;86.68;34.03;;;;;;;-2.33;49.48;100185.97;5017595;28;20121;-77
2021/12/27 10:03:46;;;;;;;99.10;34.78;;;;;;;-2.07;49.09;100193.22;5017246;28;20140;-76
2021/12/27 10:06:14;;;;;;;94.35;35.65;;;;;;;-1.66;48.61;100178.41;5016496;28;20056;-76
2021/12/27 10:08:46;;;;;;;95.18;35.10;;;;;;;-1.45;48.43;100176.22;5015585;28;20069;-76
2021/12/27 10:11:16;;;;;;;;;;;;;;;-1.80;48.68;100170.53;5016077;28;20124;-77
2021/12/27 10:14:03;;;;;;;95.72;34.05;;;;;;;-1.24;47.65;100174.00;5015559;28;20016;-77
2021/12/27 10:16:31;;;;;;;89.80;33.88;;;;;;;-1.40;47.42;100170.69;5014270;28;20402;-77
2021/12/27 10:19:01;;;;;;;91.03;35.85;;;;;;;-1.32;48.16;100163.13;5014242;28;20045;-76
2021/12/27 10:21:28;;;;;;;96.05;35.50;;;;;;;-1.42;47.83;100152.34;5014367;28;20072;-77
2021/12/27 10:24:02;;;;;;;93.93;33.55;;;;;;;-1.83;48.94;100148.81;5013601;28;20104;-77
2021/12/27 10:26:31;;;;;;;92.40;34.65;;;;;;;-1.55;48.70;100140.06;5015069;28;20070;-78
2021/12/27 10:29:27;;;;;;;93.53;34.35;;;;;;;-1.16;47.56;100148.06;5014977;28;20050;-77
2021/12/27 10:32:06;;;;;;;92.10;33.00;;;;;;;-0.21;45.64;100146.13;5010731;28;20435;-75
2021/12/27 10:34:39;;;;;;;85.40;32.05;;;;;;;-0.30;45.57;100141.50;5013896;28;20412;-77
2021/12/27 10:37:10;;;;;;;84.65;33.42;;;;;;;-0.41;46.01;100147.50;5014150;28;20065;-76
2021/12/27 10:39:45;;;;;;;88.00;31.58;;;;;;;-0.51;46.00;100142.00;5014445;28;20057;-77
2021/12/27 10:42:15;;;;;;;86.28;33.88;;;;;;;-0.13;46.00;100130.63;5014486;28;20125;-77
2021/12/27 10:44:42;;;;;;;82.00;32.05;;;;;;;-0.47;46.10;100122.41;5012708;28;20468;-76
2021/12/27 10:47:32;;;;;;;87.32;33.67;;;;;;;-0.89;46.99;100128.75;5012179;28;20057;-76
2021/12/27 10:50:06;;;;;;;88.03;33.00;;;;;;;-1.05;47.01;100113.13;5008589;28;20044;-76
2021/12/27 10:52:48;;;;;;;88.65;33.35;;;;;;;-1.20;48.19;100122.00;5004484;28;20140;-77
2021/12/27 10:55:18;;;;;;;75.20;30.20;;;;;;;-0.99;47.30;100123.25;5012750;28;20077;-77
2021/12/27 10:57:45;;;;;;;87.45;33.72;;;;;;;-0.88;47.35;100117.28;5012751;28;20116;-77
2021/12/27 11:00:25;;;;;;;92.10;34.22;;;;;;;-0.63;46.88;100116.50;5013743;28;20049;-77
2021/12/27 11:02:52;;;;;;;86.30;33.05;;;;;;;-0.95;47.79;100113.38;5015370;28;20168;-77
2021/12/27 11:05:25;;;;;;;82.35;32.53;;;;;;;-1.01;48.28;100111.97;5014817;28;20069;-77
2021/12/27 11:07:59;;;;;;;79.43;31.65;;;;;;;-0.57;47.15;100109.94;4995469;28;20038;-77
2021/12/27 11:10:27;;;;;;;83.97;31.85;;;;;;;-0.44;46.50;100111.63;4995198;28;20458;-77
2021/12/27 11:12:59;;;;;;;80.30;31.52;;;;;;;-0.39;47.05;100107.88;4992809;28;20049;-77
2021/12/27 11:15:26;;;;;;;;;;;;;;;-0.45;46.68;100098.59;4993952;28;20208;-77
2021/12/27 11:17:55;;;;;;;89.95;31.80;;;;;;;-0.92;48.05;100090.31;4993857;28;19956;-76